sensor_id;sensor_type;location;lat;lon;timestamp;P1;durP1;ratioP1;P2;durP2;ratioP2
62475;SDS011;50739;45.670;11.936;2023-06-14T00:03:54;6.32;;;4.70;;
62475;SDS011;50739;45.670;11.936;2023-06-14T00:08:56;4.97;;;3.95;;
62475;SDS011;50739;45.670;11.936;2023-06-14T00:13:58;5.18;;;4.13;;
62475;SDS011;50739;45.670;11.936;2023-06-14T00:19:02;6.67;;;4.50;;
62475;SDS011;50739;45.670;11.936;2023-06-14T00:24:05;4.93;;;4.27;;
62475;SDS011;50739;45.670;11.936;2023-06-14T00:29:07;5.40;;;3.83;;
62475;SDS011;50739;45.670;11.936;2023-06-14T00:34:11;5.47;;;4.10;;
62475;SDS011;50739;45.670;11.936;2023-06-14T00:39:13;5.50;;;4.17;;
62475;SDS011;50739;45.670;11.936;2023-06-14T00:44:16;4.60;;;4.10;;
62475;SDS011;50739;45.670;11.936;2023-06-14T00:49:21;4.90;;;3.97;;
62475;SDS011;50739;45.670;11.936;2023-06-14T00:54:23;5.55;;;3.95;;
62475;SDS011;50739;45.670;11.936;2023-06-14T00:59:25;4.77;;;4.07;;
62475;SDS011;50739;45.670;11.936;2023-06-14T01:04:29;4.60;;;4.07;;
62475;SDS011;50739;45.670;11.936;2023-06-14T01:09:32;5.43;;;4.22;;
62475;SDS011;50739;45.670;11.936;2023-06-14T01:14:45;4.70;;;4.30;;
62475;SDS011;50739;45.670;11.936;2023-06-14T01:19:50;9.20;;;4.50;;
62475;SDS011;50739;45.670;11.936;2023-06-14T01:24:59;5.67;;;4.00;;
62475;SDS011;50739;45.670;11.936;2023-06-14T01:30:02;5.88;;;4.30;;
62475;SDS011;50739;45.670;11.936;2023-06-14T01:35:06;4.90;;;4.40;;
62475;SDS011;50739;45.670;11.936;2023-06-14T01:40:11;5.00;;;4.03;;
62475;SDS011;50739;45.670;11.936;2023-06-14T01:45:14;7.78;;;4.40;;
62475;SDS011;50739;45.670;11.936;2023-06-14T01:50:18;5.55;;;4.60;;
62475;SDS011;50739;45.670;11.936;2023-06-14T01:55:23;5.43;;;4.15;;
62475;SDS011;50739;45.670;11.936;2023-06-14T02:00:26;5.27;;;4.13;;
62475;SDS011;50739;45.670;11.936;2023-06-14T02:05:28;5.05;;;4.55;;
62475;SDS011;50739;45.670;11.936;2023-06-14T02:10:32;5.63;;;4.80;;
62475;SDS011;50739;45.670;11.936;2023-06-14T02:15:34;6.45;;;4.63;;
62475;SDS011;50739;45.670;11.936;2023-06-14T02:20:37;5.60;;;4.72;;
62475;SDS011;50739;45.670;11.936;2023-06-14T02:25:41;5.40;;;4.50;;
62475;SDS011;50739;45.670;11.936;2023-06-14T02:30:45;7.07;;;4.63;;
62475;SDS011;50739;45.670;11.936;2023-06-14T02:35:47;6.15;;;5.15;;
62475;SDS011;50739;45.670;11.936;2023-06-14T02:40:52;8.00;;;5.30;;
62475;SDS011;50739;45.670;11.936;2023-06-14T02:45:54;6.70;;;5.93;;
62475;SDS011;50739;45.670;11.936;2023-06-14T02:50:56;6.95;;;6.25;;
62475;SDS011;50739;45.670;11.936;2023-06-14T02:56:00;7.97;;;5.90;;
62475;SDS011;50739;45.670;11.936;2023-06-14T03:01:04;9.47;;;5.70;;
62475;SDS011;50739;45.670;11.936;2023-06-14T03:06:08;8.30;;;5.90;;
62475;SDS011;50739;45.670;11.936;2023-06-14T03:11:14;8.30;;;6.05;;
62475;SDS011;50739;45.670;11.936;2023-06-14T03:16:17;7.07;;;5.43;;
62475;SDS011;50739;45.670;11.936;2023-06-14T03:21:20;6.35;;;5.45;;
62475;SDS011;50739;45.670;11.936;2023-06-14T03:26:24;8.23;;;5.93;;
62475;SDS011;50739;45.670;11.936;2023-06-14T03:31:26;7.00;;;5.82;;
62475;SDS011;50739;45.670;11.936;2023-06-14T03:36:33;6.68;;;5.13;;
62475;SDS011;50739;45.670;11.936;2023-06-14T03:41:36;8.00;;;5.90;;
62475;SDS011;50739;45.670;11.936;2023-06-14T03:46:39;7.35;;;5.80;;
62475;SDS011;50739;45.670;11.936;2023-06-14T03:51:41;8.35;;;5.70;;
62475;SDS011;50739;45.670;11.936;2023-06-14T03:56:45;7.82;;;5.72;;
62475;SDS011;50739;45.670;11.936;2023-06-14T04:01:47;6.40;;;5.53;;
62475;SDS011;50739;45.670;11.936;2023-06-14T04:06:50;8.52;;;5.90;;
62475;SDS011;50739;45.670;11.936;2023-06-14T04:11:53;7.20;;;5.97;;
62475;SDS011;50739;45.670;11.936;2023-06-14T04:16:56;7.85;;;5.90;;
62475;SDS011;50739;45.670;11.936;2023-06-14T04:21:58;6.90;;;6.00;;
62475;SDS011;50739;45.670;11.936;2023-06-14T04:27:03;6.93;;;5.70;;
62475;SDS011;50739;45.670;11.936;2023-06-14T04:32:07;8.02;;;5.90;;
62475;SDS011;50739;45.670;11.936;2023-06-14T04:37:10;5.43;;;4.68;;
62475;SDS011;50739;45.670;11.936;2023-06-14T04:42:15;6.22;;;4.97;;
62475;SDS011;50739;45.670;11.936;2023-06-14T04:47:20;7.68;;;5.30;;
62475;SDS011;50739;45.670;11.936;2023-06-14T04:52:23;9.77;;;5.82;;
62475;SDS011;50739;45.670;11.936;2023-06-14T04:57:28;8.88;;;5.32;;
62475;SDS011;50739;45.670;11.936;2023-06-14T05:02:31;5.40;;;4.90;;
62475;SDS011;50739;45.670;11.936;2023-06-14T05:07:33;7.40;;;5.50;;
62475;SDS011;50739;45.670;11.936;2023-06-14T05:12:37;6.05;;;5.40;;
62475;SDS011;50739;45.670;11.936;2023-06-14T05:17:39;6.68;;;5.15;;
62475;SDS011;50739;45.670;11.936;2023-06-14T05:22:42;6.15;;;5.45;;
62475;SDS011;50739;45.670;11.936;2023-06-14T05:27:46;7.50;;;5.22;;
62475;SDS011;50739;45.670;11.936;2023-06-14T05:32:48;6.20;;;5.60;;
62475;SDS011;50739;45.670;11.936;2023-06-14T05:37:50;7.60;;;5.57;;
62475;SDS011;50739;45.670;11.936;2023-06-14T05:42:54;7.15;;;5.50;;
62475;SDS011;50739;45.670;11.936;2023-06-14T05:47:56;8.38;;;5.10;;
62475;SDS011;50739;45.670;11.936;2023-06-14T05:52:59;6.20;;;4.85;;
62475;SDS011;50739;45.670;11.936;2023-06-14T05:58:02;8.65;;;4.95;;
62475;SDS011;50739;45.670;11.936;2023-06-14T06:03:05;6.40;;;5.30;;
62475;SDS011;50739;45.670;11.936;2023-06-14T06:08:09;5.97;;;5.17;;
62475;SDS011;50739;45.670;11.936;2023-06-14T06:13:13;7.72;;;6.30;;
62475;SDS011;50739;45.670;11.936;2023-06-14T06:18:16;6.45;;;5.40;;
62475;SDS011;50739;45.670;11.936;2023-06-14T06:23:18;5.35;;;4.20;;
62475;SDS011;50739;45.670;11.936;2023-06-14T06:28:22;5.80;;;4.50;;
62475;SDS011;50739;45.670;11.936;2023-06-14T06:33:24;7.57;;;5.07;;
62475;SDS011;50739;45.670;11.936;2023-06-14T06:38:26;6.20;;;4.45;;
62475;SDS011;50739;45.670;11.936;2023-06-14T06:43:30;4.47;;;3.40;;
62475;SDS011;50739;45.670;11.936;2023-06-14T06:48:32;4.50;;;3.20;;
62475;SDS011;50739;45.670;11.936;2023-06-14T06:53:34;3.42;;;3.10;;
62475;SDS011;50739;45.670;11.936;2023-06-14T06:58:38;4.20;;;3.20;;
62475;SDS011;50739;45.670;11.936;2023-06-14T07:03:40;3.87;;;3.17;;
62475;SDS011;50739;45.670;11.936;2023-06-14T07:08:42;4.40;;;3.53;;
62475;SDS011;50739;45.670;11.936;2023-06-14T07:13:46;3.58;;;2.97;;
62475;SDS011;50739;45.670;11.936;2023-06-14T07:18:48;3.20;;;2.90;;
62475;SDS011;50739;45.670;11.936;2023-06-14T07:23:51;2.90;;;2.60;;
62475;SDS011;50739;45.670;11.936;2023-06-14T07:28:55;3.03;;;2.50;;
62475;SDS011;50739;45.670;11.936;2023-06-14T07:33:57;4.72;;;2.50;;
62475;SDS011;50739;45.670;11.936;2023-06-14T07:39:00;4.03;;;2.80;;
62475;SDS011;50739;45.670;11.936;2023-06-14T07:44:05;4.37;;;2.80;;
62475;SDS011;50739;45.670;11.936;2023-06-14T07:49:07;3.00;;;2.53;;
62475;SDS011;50739;45.670;11.936;2023-06-14T07:54:10;5.57;;;3.33;;
62475;SDS011;50739;45.670;11.936;2023-06-14T07:59:13;4.23;;;3.20;;
62475;SDS011;50739;45.670;11.936;2023-06-14T08:04:16;4.43;;;3.30;;
62475;SDS011;50739;45.670;11.936;2023-06-14T08:09:18;4.25;;;2.95;;
62475;SDS011;50739;45.670;11.936;2023-06-14T08:14:22;3.78;;;3.22;;
62475;SDS011;50739;45.670;11.936;2023-06-14T08:19:25;4.57;;;2.88;;
62475;SDS011;50739;45.670;11.936;2023-06-14T08:24:29;3.78;;;2.70;;
62475;SDS011;50739;45.670;11.936;2023-06-14T08:29:33;3.88;;;2.88;;
62475;SDS011;50739;45.670;11.936;2023-06-14T08:34:35;5.77;;;3.20;;
62475;SDS011;50739;45.670;11.936;2023-06-14T08:39:37;3.63;;;2.78;;
62475;SDS011;50739;45.670;11.936;2023-06-14T08:44:41;4.47;;;3.08;;
62475;SDS011;50739;45.670;11.936;2023-06-14T08:49:44;3.97;;;2.88;;
62475;SDS011;50739;45.670;11.936;2023-06-14T08:54:49;2.70;;;2.50;;
62475;SDS011;50739;45.670;11.936;2023-06-14T08:59:52;3.53;;;3.03;;
62475;SDS011;50739;45.670;11.936;2023-06-14T09:04:55;3.13;;;2.83;;
62475;SDS011;50739;45.670;11.936;2023-06-14T09:10:07;3.72;;;3.10;;
62475;SDS011;50739;45.670;11.936;2023-06-14T09:15:12;4.85;;;3.20;;
62475;SDS011;50739;45.670;11.936;2023-06-14T09:20:14;3.47;;;3.17;;
62475;SDS011;50739;45.670;11.936;2023-06-14T09:25:18;4.50;;;2.90;;
62475;SDS011;50739;45.670;11.936;2023-06-14T09:30:22;3.28;;;2.97;;
62475;SDS011;50739;45.670;11.936;2023-06-14T09:35:25;3.83;;;2.95;;
62475;SDS011;50739;45.670;11.936;2023-06-14T09:40:28;3.40;;;3.00;;
62475;SDS011;50739;45.670;11.936;2023-06-14T09:45:39;3.95;;;3.10;;
62475;SDS011;50739;45.670;11.936;2023-06-14T09:51:15;4.17;;;3.10;;
62475;SDS011;50739;45.670;11.936;2023-06-14T09:56:07;4.15;;;2.70;;
62475;SDS011;50739;45.670;11.936;2023-06-14T10:01:13;3.75;;;3.13;;
62475;SDS011;50739;45.670;11.936;2023-06-14T10:06:16;4.18;;;3.05;;
62475;SDS011;50739;45.670;11.936;2023-06-14T10:11:19;4.17;;;3.10;;
62475;SDS011;50739;45.670;11.936;2023-06-14T10:16:24;4.22;;;3.13;;
62475;SDS011;50739;45.670;11.936;2023-06-14T10:21:33;3.72;;;3.13;;
62475;SDS011;50739;45.670;11.936;2023-06-14T10:26:56;4.60;;;3.22;;
62475;SDS011;50739;45.670;11.936;2023-06-14T10:32:01;4.18;;;3.17;;
62475;SDS011;50739;45.670;11.936;2023-06-14T10:37:05;3.25;;;2.92;;
62475;SDS011;50739;45.670;11.936;2023-06-14T10:42:08;5.60;;;3.05;;
62475;SDS011;50739;45.670;11.936;2023-06-14T10:47:19;3.55;;;2.97;;
62475;SDS011;50739;45.670;11.936;2023-06-14T10:52:25;3.47;;;3.05;;
62475;SDS011;50739;45.670;11.936;2023-06-14T10:57:29;3.95;;;3.15;;
62475;SDS011;50739;45.670;11.936;2023-06-14T11:02:46;5.28;;;3.05;;
62475;SDS011;50739;45.670;11.936;2023-06-14T11:13:43;3.28;;;2.90;;
62475;SDS011;50739;45.670;11.936;2023-06-14T11:18:49;3.22;;;2.92;;
62475;SDS011;50739;45.670;11.936;2023-06-14T11:23:52;3.97;;;2.88;;
62475;SDS011;50739;45.670;11.936;2023-06-14T11:28:56;4.53;;;3.00;;
62475;SDS011;50739;45.670;11.936;2023-06-14T11:34:01;3.30;;;3.00;;
62475;SDS011;50739;45.670;11.936;2023-06-14T11:39:05;4.75;;;3.03;;
62475;SDS011;50739;45.670;11.936;2023-06-14T11:44:09;4.87;;;3.07;;
62475;SDS011;50739;45.670;11.936;2023-06-14T11:49:14;4.63;;;2.90;;
62475;SDS011;50739;45.670;11.936;2023-06-14T11:54:16;4.82;;;2.95;;
62475;SDS011;50739;45.670;11.936;2023-06-14T11:59:20;3.30;;;3.00;;
62475;SDS011;50739;45.670;11.936;2023-06-14T12:04:27;4.27;;;3.27;;
62475;SDS011;50739;45.670;11.936;2023-06-14T12:09:30;5.57;;;3.10;;
62475;SDS011;50739;45.670;11.936;2023-06-14T12:14:33;3.83;;;2.70;;
62475;SDS011;50739;45.670;11.936;2023-06-14T12:19:42;5.63;;;3.40;;
62475;SDS011;50739;45.670;11.936;2023-06-14T12:24:45;4.88;;;2.95;;
62475;SDS011;50739;45.670;11.936;2023-06-14T12:29:48;4.13;;;3.63;;
62475;SDS011;50739;45.670;11.936;2023-06-14T12:35:02;3.03;;;2.60;;
62475;SDS011;50739;45.670;11.936;2023-06-14T12:40:05;3.90;;;2.90;;
62475;SDS011;50739;45.670;11.936;2023-06-14T12:45:10;4.30;;;2.87;;
62475;SDS011;50739;45.670;11.936;2023-06-14T12:50:14;3.00;;;2.70;;
62475;SDS011;50739;45.670;11.936;2023-06-14T12:55:16;2.60;;;2.40;;
62475;SDS011;50739;45.670;11.936;2023-06-14T13:00:19;3.83;;;2.92;;
62475;SDS011;50739;45.670;11.936;2023-06-14T13:05:24;4.50;;;3.00;;
62475;SDS011;50739;45.670;11.936;2023-06-14T13:10:26;3.63;;;2.88;;
62475;SDS011;50739;45.670;11.936;2023-06-14T13:15:29;3.53;;;3.05;;
62475;SDS011;50739;45.670;11.936;2023-06-14T13:20:33;3.90;;;3.10;;
62475;SDS011;50739;45.670;11.936;2023-06-14T13:25:36;3.63;;;3.15;;
62475;SDS011;50739;45.670;11.936;2023-06-14T13:30:38;3.70;;;2.95;;
62475;SDS011;50739;45.670;11.936;2023-06-14T13:35:42;4.25;;;3.05;;
62475;SDS011;50739;45.670;11.936;2023-06-14T13:47:00;3.15;;;2.88;;
62475;SDS011;50739;45.670;11.936;2023-06-14T13:52:04;3.30;;;2.70;;
62475;SDS011;50739;45.670;11.936;2023-06-14T13:57:07;4.85;;;3.22;;
62475;SDS011;50739;45.670;11.936;2023-06-14T14:02:09;3.33;;;3.00;;
62475;SDS011;50739;45.670;11.936;2023-06-14T14:07:14;3.47;;;3.17;;
62475;SDS011;50739;45.670;11.936;2023-06-14T14:12:16;4.40;;;3.33;;
62475;SDS011;50739;45.670;11.936;2023-06-14T14:17:26;4.47;;;3.15;;
62475;SDS011;50739;45.670;11.936;2023-06-14T14:22:30;4.65;;;3.28;;
62475;SDS011;50739;45.670;11.936;2023-06-14T14:27:32;3.40;;;2.77;;
62475;SDS011;50739;45.670;11.936;2023-06-14T14:32:34;4.73;;;3.37;;
62475;SDS011;50739;45.670;11.936;2023-06-14T14:37:38;3.85;;;2.80;;
62475;SDS011;50739;45.670;11.936;2023-06-14T14:42:40;3.30;;;2.97;;
62475;SDS011;50739;45.670;11.936;2023-06-14T14:47:42;2.93;;;2.63;;
62475;SDS011;50739;45.670;11.936;2023-06-14T14:52:46;3.20;;;2.90;;
62475;SDS011;50739;45.670;11.936;2023-06-14T14:57:48;5.05;;;3.15;;
62475;SDS011;50739;45.670;11.936;2023-06-14T15:02:51;3.35;;;3.05;;
62475;SDS011;50739;45.670;11.936;2023-06-14T15:07:55;5.40;;;3.17;;
62475;SDS011;50739;45.670;11.936;2023-06-14T15:12:57;3.20;;;2.90;;
62475;SDS011;50739;45.670;11.936;2023-06-14T15:17:59;3.15;;;2.85;;
62475;SDS011;50739;45.670;11.936;2023-06-14T15:23:03;5.75;;;3.08;;
62475;SDS011;50739;45.670;11.936;2023-06-14T15:28:05;4.10;;;3.10;;
62475;SDS011;50739;45.670;11.936;2023-06-14T15:33:09;3.37;;;2.87;;
62475;SDS011;50739;45.670;11.936;2023-06-14T15:38:13;3.30;;;3.00;;
62475;SDS011;50739;45.670;11.936;2023-06-14T15:43:15;3.30;;;3.00;;
62475;SDS011;50739;45.670;11.936;2023-06-14T15:48:17;3.00;;;2.75;;
62475;SDS011;50739;45.670;11.936;2023-06-14T15:53:21;3.90;;;2.78;;
62475;SDS011;50739;45.670;11.936;2023-06-14T15:58:24;4.05;;;3.50;;
62475;SDS011;50739;45.670;11.936;2023-06-14T16:03:26;3.33;;;3.00;;
62475;SDS011;50739;45.670;11.936;2023-06-14T16:08:30;4.25;;;3.83;;
62475;SDS011;50739;45.670;11.936;2023-06-14T16:13:32;5.07;;;3.40;;
62475;SDS011;50739;45.670;11.936;2023-06-14T16:18:35;3.78;;;3.28;;
62475;SDS011;50739;45.670;11.936;2023-06-14T16:23:39;3.83;;;3.42;;
62475;SDS011;50739;45.670;11.936;2023-06-14T16:28:41;4.38;;;3.80;;
62475;SDS011;50739;45.670;11.936;2023-06-14T16:33:44;5.65;;;3.78;;
62475;SDS011;50739;45.670;11.936;2023-06-14T16:38:48;5.33;;;3.87;;
62475;SDS011;50739;45.670;11.936;2023-06-14T16:43:51;5.40;;;3.65;;
62475;SDS011;50739;45.670;11.936;2023-06-14T16:48:53;4.40;;;3.60;;
62475;SDS011;50739;45.670;11.936;2023-06-14T16:53:57;4.00;;;3.60;;
62475;SDS011;50739;45.670;11.936;2023-06-14T16:58:59;3.97;;;3.22;;
62475;SDS011;50739;45.670;11.936;2023-06-14T17:04:01;3.80;;;3.17;;
62475;SDS011;50739;45.670;11.936;2023-06-14T17:09:05;3.75;;;3.22;;
62475;SDS011;50739;45.670;11.936;2023-06-14T17:14:08;3.73;;;3.43;;
62475;SDS011;50739;45.670;11.936;2023-06-14T17:19:13;4.57;;;3.10;;
62475;SDS011;50739;45.670;11.936;2023-06-14T17:24:16;4.40;;;3.10;;
62475;SDS011;50739;45.670;11.936;2023-06-14T17:29:19;3.83;;;3.17;;
62475;SDS011;50739;45.670;11.936;2023-06-14T17:34:24;4.75;;;3.22;;
62475;SDS011;50739;45.670;11.936;2023-06-14T17:39:30;3.20;;;2.90;;
62475;SDS011;50739;45.670;11.936;2023-06-14T17:44:33;3.60;;;3.10;;
62475;SDS011;50739;45.670;11.936;2023-06-14T17:49:35;3.10;;;2.80;;
62475;SDS011;50739;45.670;11.936;2023-06-14T17:54:39;3.70;;;2.80;;
62475;SDS011;50739;45.670;11.936;2023-06-14T17:59:42;4.47;;;2.83;;
62475;SDS011;50739;45.670;11.936;2023-06-14T18:04:44;4.33;;;2.90;;
62475;SDS011;50739;45.670;11.936;2023-06-14T18:09:48;5.43;;;3.17;;
62475;SDS011;50739;45.670;11.936;2023-06-14T18:14:50;3.10;;;2.70;;
62475;SDS011;50739;45.670;11.936;2023-06-14T18:19:53;5.28;;;2.97;;
62475;SDS011;50739;45.670;11.936;2023-06-14T18:24:56;4.22;;;2.92;;
62475;SDS011;50739;45.670;11.936;2023-06-14T18:30:02;3.30;;;2.93;;
62475;SDS011;50739;45.670;11.936;2023-06-14T18:35:05;3.22;;;2.88;;
62475;SDS011;50739;45.670;11.936;2023-06-14T18:40:09;3.92;;;2.95;;
62475;SDS011;50739;45.670;11.936;2023-06-14T18:45:12;4.00;;;2.92;;
62475;SDS011;50739;45.670;11.936;2023-06-14T18:50:16;4.50;;;3.00;;
62475;SDS011;50739;45.670;11.936;2023-06-14T18:55:20;4.20;;;3.00;;
62475;SDS011;50739;45.670;11.936;2023-06-14T19:00:23;4.07;;;2.80;;
62475;SDS011;50739;45.670;11.936;2023-06-14T19:05:30;4.18;;;3.00;;
62475;SDS011;50739;45.670;11.936;2023-06-14T19:10:34;4.00;;;3.28;;
62475;SDS011;50739;45.670;11.936;2023-06-14T19:15:36;4.22;;;3.20;;
62475;SDS011;50739;45.670;11.936;2023-06-14T19:20:38;4.88;;;3.22;;
62475;SDS011;50739;45.670;11.936;2023-06-14T19:25:42;8.23;;;3.03;;
62475;SDS011;50739;45.670;11.936;2023-06-14T19:30:44;3.72;;;3.20;;
62475;SDS011;50739;45.670;11.936;2023-06-14T19:35:47;4.43;;;3.30;;
62475;SDS011;50739;45.670;11.936;2023-06-14T19:40:50;5.07;;;3.27;;
62475;SDS011;50739;45.670;11.936;2023-06-14T19:45:52;4.00;;;3.00;;
62475;SDS011;50739;45.670;11.936;2023-06-14T19:50:55;4.40;;;3.50;;
62475;SDS011;50739;45.670;11.936;2023-06-14T19:55:58;4.37;;;3.50;;
62475;SDS011;50739;45.670;11.936;2023-06-14T20:01:01;5.65;;;3.80;;
62475;SDS011;50739;45.670;11.936;2023-06-14T20:06:03;5.72;;;3.70;;
62475;SDS011;50739;45.670;11.936;2023-06-14T20:11:08;6.75;;;3.83;;
62475;SDS011;50739;45.670;11.936;2023-06-14T20:16:11;4.70;;;3.20;;
62475;SDS011;50739;45.670;11.936;2023-06-14T20:21:13;8.13;;;4.20;;
62475;SDS011;50739;45.670;11.936;2023-06-14T20:26:17;5.43;;;3.70;;
62475;SDS011;50739;45.670;11.936;2023-06-14T20:31:21;4.20;;;3.80;;
62475;SDS011;50739;45.670;11.936;2023-06-14T20:36:23;6.07;;;4.88;;
62475;SDS011;50739;45.670;11.936;2023-06-14T20:41:27;6.10;;;5.10;;
62475;SDS011;50739;45.670;11.936;2023-06-14T20:46:29;9.85;;;5.13;;
62475;SDS011;50739;45.670;11.936;2023-06-14T20:51:34;5.93;;;4.20;;
62475;SDS011;50739;45.670;11.936;2023-06-14T20:56:38;4.55;;;4.15;;
62475;SDS011;50739;45.670;11.936;2023-06-14T21:01:41;4.22;;;3.83;;
62475;SDS011;50739;45.670;11.936;2023-06-14T21:06:43;5.35;;;3.78;;
62475;SDS011;50739;45.670;11.936;2023-06-14T21:11:47;4.03;;;3.40;;
62475;SDS011;50739;45.670;11.936;2023-06-14T21:16:49;3.92;;;3.53;;
62475;SDS011;50739;45.670;11.936;2023-06-14T21:21:52;4.00;;;3.40;;
62475;SDS011;50739;45.670;11.936;2023-06-14T21:26:56;3.20;;;2.88;;
62475;SDS011;50739;45.670;11.936;2023-06-14T21:31:59;3.10;;;1.60;;
62475;SDS011;50739;45.670;11.936;2023-06-14T21:37:01;1.87;;;1.63;;
62475;SDS011;50739;45.670;11.936;2023-06-14T21:42:05;2.80;;;1.83;;
62475;SDS011;50739;45.670;11.936;2023-06-14T21:47:08;2.20;;;1.80;;
62475;SDS011;50739;45.670;11.936;2023-06-14T21:52:11;2.13;;;1.75;;
62475;SDS011;50739;45.670;11.936;2023-06-14T21:57:16;2.30;;;1.97;;
62475;SDS011;50739;45.670;11.936;2023-06-14T22:02:20;2.53;;;1.90;;
62475;SDS011;50739;45.670;11.936;2023-06-14T22:07:22;3.35;;;1.77;;
62475;SDS011;50739;45.670;11.936;2023-06-14T22:12:26;2.25;;;1.80;;
62475;SDS011;50739;45.670;11.936;2023-06-14T22:17:29;3.30;;;1.65;;
62475;SDS011;50739;45.670;11.936;2023-06-14T22:22:31;2.17;;;1.70;;
62475;SDS011;50739;45.670;11.936;2023-06-14T22:33:05;2.90;;;1.80;;
62475;SDS011;50739;45.670;11.936;2023-06-14T22:38:08;2.53;;;1.77;;
62475;SDS011;50739;45.670;11.936;2023-06-14T22:43:13;2.35;;;1.70;;
62475;SDS011;50739;45.670;11.936;2023-06-14T22:48:16;1.85;;;1.63;;
62475;SDS011;50739;45.670;11.936;2023-06-14T22:53:19;1.80;;;1.60;;
62475;SDS011;50739;45.670;11.936;2023-06-14T22:58:23;2.03;;;1.83;;
62475;SDS011;50739;45.670;11.936;2023-06-14T23:03:25;2.10;;;1.80;;
62475;SDS011;50739;45.670;11.936;2023-06-14T23:08:28;2.30;;;1.70;;
62475;SDS011;50739;45.670;11.936;2023-06-14T23:13:32;3.93;;;1.90;;
62475;SDS011;50739;45.670;11.936;2023-06-14T23:18:34;2.40;;;2.00;;
62475;SDS011;50739;45.670;11.936;2023-06-14T23:23:37;3.05;;;1.98;;
62475;SDS011;50739;45.670;11.936;2023-06-14T23:28:41;2.10;;;1.50;;
62475;SDS011;50739;45.670;11.936;2023-06-14T23:33:46;2.58;;;1.85;;
62475;SDS011;50739;45.670;11.936;2023-06-14T23:38:49;2.22;;;1.73;;
62475;SDS011;50739;45.670;11.936;2023-06-14T23:43:52;2.80;;;1.70;;
62475;SDS011;50739;45.670;11.936;2023-06-14T23:48:55;3.13;;;1.77;;
62475;SDS011;50739;45.670;11.936;2023-06-14T23:53:58;2.72;;;1.92;;
62475;SDS011;50739;45.670;11.936;2023-06-14T23:59:04;3.13;;;1.97;;
